sensor_id;sensor_type;location;lat;lon;timestamp;P1;durP1;ratioP1;P2;durP2;ratioP2
22150;SDS011;11241;47.078;15.462;2022-08-21T00:02:15;2.30;;;1.00;;
22150;SDS011;11241;47.078;15.462;2022-08-21T00:04:33;1.25;;;1.08;;
22150;SDS011;11241;47.078;15.462;2022-08-21T00:06:52;2.17;;;1.10;;
22150;SDS011;11241;47.078;15.462;2022-08-21T00:09:10;1.10;;;1.00;;
22150;SDS011;11241;47.078;15.462;2022-08-21T00:11:28;1.70;;;1.17;;
22150;SDS011;11241;47.078;15.462;2022-08-21T00:13:45;2.72;;;1.10;;
22150;SDS011;11241;47.078;15.462;2022-08-21T00:16:03;1.90;;;1.33;;
22150;SDS011;11241;47.078;15.462;2022-08-21T00:18:21;1.85;;;1.20;;
22150;SDS011;11241;47.078;15.462;2022-08-21T00:20:40;1.30;;;1.20;;
22150;SDS011;11241;47.078;15.462;2022-08-21T00:22:58;1.27;;;1.00;;
22150;SDS011;11241;47.078;15.462;2022-08-21T00:25:16;1.42;;;1.30;;
22150;SDS011;11241;47.078;15.462;2022-08-21T00:27:40;4.72;;;1.30;;
22150;SDS011;11241;47.078;15.462;2022-08-21T00:29:59;1.60;;;1.50;;
22150;SDS011;11241;47.078;15.462;2022-08-21T00:32:23;1.65;;;1.10;;
22150;SDS011;11241;47.078;15.462;2022-08-21T00:34:41;1.33;;;1.05;;
22150;SDS011;11241;47.078;15.462;2022-08-21T00:36:59;1.80;;;1.10;;
22150;SDS011;11241;47.078;15.462;2022-08-21T00:39:17;1.33;;;1.00;;
22150;SDS011;11241;47.078;15.462;2022-08-21T00:41:40;1.65;;;1.15;;
22150;SDS011;11241;47.078;15.462;2022-08-21T00:43:59;1.98;;;1.10;;
22150;SDS011;11241;47.078;15.462;2022-08-21T00:46:17;1.23;;;1.10;;
22150;SDS011;11241;47.078;15.462;2022-08-21T00:48:35;2.95;;;1.20;;
22150;SDS011;11241;47.078;15.462;2022-08-21T00:51:13;1.30;;;1.00;;
22150;SDS011;11241;47.078;15.462;2022-08-21T00:53:43;1.17;;;1.08;;
22150;SDS011;11241;47.078;15.462;2022-08-21T00:56:07;1.30;;;1.13;;
22150;SDS011;11241;47.078;15.462;2022-08-21T00:58:27;1.30;;;1.20;;
22150;SDS011;11241;47.078;15.462;2022-08-21T01:00:46;1.42;;;1.23;;
22150;SDS011;11241;47.078;15.462;2022-08-21T01:03:09;1.23;;;1.13;;
22150;SDS011;11241;47.078;15.462;2022-08-21T01:05:29;1.23;;;1.13;;
22150;SDS011;11241;47.078;15.462;2022-08-21T01:07:47;1.98;;;1.20;;
22150;SDS011;11241;47.078;15.462;2022-08-21T01:10:05;1.48;;;1.38;;
22150;SDS011;11241;47.078;15.462;2022-08-21T01:12:23;1.13;;;1.02;;
22150;SDS011;11241;47.078;15.462;2022-08-21T01:14:41;2.97;;;1.30;;
22150;SDS011;11241;47.078;15.462;2022-08-21T01:17:00;2.60;;;1.20;;
22150;SDS011;11241;47.078;15.462;2022-08-21T01:19:20;2.33;;;1.20;;
22150;SDS011;11241;47.078;15.462;2022-08-21T01:21:38;1.80;;;1.45;;
22150;SDS011;11241;47.078;15.462;2022-08-21T01:23:56;2.00;;;1.20;;
22150;SDS011;11241;47.078;15.462;2022-08-21T01:26:15;1.60;;;1.23;;
22150;SDS011;11241;47.078;15.462;2022-08-21T01:28:38;1.52;;;1.42;;
22150;SDS011;11241;47.078;15.462;2022-08-21T01:30:58;2.15;;;1.35;;
22150;SDS011;11241;47.078;15.462;2022-08-21T01:33:17;1.70;;;1.40;;
22150;SDS011;11241;47.078;15.462;2022-08-21T01:35:35;1.60;;;1.30;;
22150;SDS011;11241;47.078;15.462;2022-08-21T01:37:53;1.98;;;1.20;;
22150;SDS011;11241;47.078;15.462;2022-08-21T01:40:11;1.67;;;1.40;;
22150;SDS011;11241;47.078;15.462;2022-08-21T01:42:30;3.42;;;1.35;;
22150;SDS011;11241;47.078;15.462;2022-08-21T01:44:47;1.88;;;1.23;;
22150;SDS011;11241;47.078;15.462;2022-08-21T01:47:11;1.65;;;1.25;;
22150;SDS011;11241;47.078;15.462;2022-08-21T01:49:30;4.70;;;1.30;;
22150;SDS011;11241;47.078;15.462;2022-08-21T01:51:48;1.55;;;1.40;;
22150;SDS011;11241;47.078;15.462;2022-08-21T01:54:06;1.45;;;1.33;;
22150;SDS011;11241;47.078;15.462;2022-08-21T01:56:24;3.10;;;1.48;;
22150;SDS011;11241;47.078;15.462;2022-08-21T01:58:43;4.13;;;1.40;;
22150;SDS011;11241;47.078;15.462;2022-08-21T02:01:02;2.47;;;1.38;;
22150;SDS011;11241;47.078;15.462;2022-08-21T02:03:20;2.72;;;1.40;;
22150;SDS011;11241;47.078;15.462;2022-08-21T02:05:51;2.90;;;1.38;;
22150;SDS011;11241;47.078;15.462;2022-08-21T02:08:08;2.65;;;1.42;;
22150;SDS011;11241;47.078;15.462;2022-08-21T02:10:28;2.78;;;1.30;;
22150;SDS011;11241;47.078;15.462;2022-08-21T02:12:46;2.15;;;1.60;;
22150;SDS011;11241;47.078;15.462;2022-08-21T02:15:04;1.67;;;1.30;;
22150;SDS011;11241;47.078;15.462;2022-08-21T02:17:23;2.70;;;1.40;;
22150;SDS011;11241;47.078;15.462;2022-08-21T02:19:40;2.10;;;1.50;;
22150;SDS011;11241;47.078;15.462;2022-08-21T02:21:58;3.13;;;1.40;;
22150;SDS011;11241;47.078;15.462;2022-08-21T02:24:16;2.15;;;1.30;;
22150;SDS011;11241;47.078;15.462;2022-08-21T02:26:34;1.98;;;1.38;;
22150;SDS011;11241;47.078;15.462;2022-08-21T02:28:52;3.28;;;1.60;;
22150;SDS011;11241;47.078;15.462;2022-08-21T02:31:10;2.05;;;1.42;;
22150;SDS011;11241;47.078;15.462;2022-08-21T02:33:28;2.00;;;1.48;;
22150;SDS011;11241;47.078;15.462;2022-08-21T02:35:47;2.17;;;1.20;;
22150;SDS011;11241;47.078;15.462;2022-08-21T02:38:06;2.20;;;1.40;;
22150;SDS011;11241;47.078;15.462;2022-08-21T02:40:30;3.38;;;1.50;;
22150;SDS011;11241;47.078;15.462;2022-08-21T02:42:49;2.25;;;1.40;;
22150;SDS011;11241;47.078;15.462;2022-08-21T02:45:07;1.50;;;1.30;;
22150;SDS011;11241;47.078;15.462;2022-08-21T02:47:25;1.58;;;1.48;;
22150;SDS011;11241;47.078;15.462;2022-08-21T02:49:43;2.35;;;1.45;;
22150;SDS011;11241;47.078;15.462;2022-08-21T02:52:01;1.95;;;1.38;;
22150;SDS011;11241;47.078;15.462;2022-08-21T02:54:18;2.42;;;1.35;;
22150;SDS011;11241;47.078;15.462;2022-08-21T02:56:36;2.95;;;1.50;;
22150;SDS011;11241;47.078;15.462;2022-08-21T02:58:54;4.50;;;1.60;;
22150;SDS011;11241;47.078;15.462;2022-08-21T03:01:12;1.58;;;1.48;;
22150;SDS011;11241;47.078;15.462;2022-08-21T03:03:31;2.22;;;1.60;;
22150;SDS011;11241;47.078;15.462;2022-08-21T03:05:52;2.25;;;1.50;;
22150;SDS011;11241;47.078;15.462;2022-08-21T03:08:11;1.60;;;1.50;;
22150;SDS011;11241;47.078;15.462;2022-08-21T03:10:29;2.05;;;1.42;;
22150;SDS011;11241;47.078;15.462;2022-08-21T03:12:48;2.03;;;1.65;;
22150;SDS011;11241;47.078;15.462;2022-08-21T03:15:07;3.35;;;1.60;;
22150;SDS011;11241;47.078;15.462;2022-08-21T03:17:26;1.75;;;1.60;;
22150;SDS011;11241;47.078;15.462;2022-08-21T03:19:46;1.98;;;1.40;;
22150;SDS011;11241;47.078;15.462;2022-08-21T03:22:03;1.60;;;1.50;;
22150;SDS011;11241;47.078;15.462;2022-08-21T03:24:22;1.63;;;1.50;;
22150;SDS011;11241;47.078;15.462;2022-08-21T03:26:39;1.75;;;1.50;;
22150;SDS011;11241;47.078;15.462;2022-08-21T03:28:57;2.88;;;1.40;;
22150;SDS011;11241;47.078;15.462;2022-08-21T03:31:15;4.53;;;1.98;;
22150;SDS011;11241;47.078;15.462;2022-08-21T03:33:34;1.88;;;1.58;;
22150;SDS011;11241;47.078;15.462;2022-08-21T03:35:55;2.72;;;1.77;;
22150;SDS011;11241;47.078;15.462;2022-08-21T03:38:14;2.17;;;1.60;;
22150;SDS011;11241;47.078;15.462;2022-08-21T03:40:32;4.20;;;1.58;;
22150;SDS011;11241;47.078;15.462;2022-08-21T03:42:50;3.28;;;1.70;;
22150;SDS011;11241;47.078;15.462;2022-08-21T03:45:08;2.13;;;1.60;;
22150;SDS011;11241;47.078;15.462;2022-08-21T03:47:26;1.95;;;1.63;;
22150;SDS011;11241;47.078;15.462;2022-08-21T03:49:44;1.60;;;1.50;;
22150;SDS011;11241;47.078;15.462;2022-08-21T03:52:02;2.13;;;1.60;;
22150;SDS011;11241;47.078;15.462;2022-08-21T03:54:20;2.10;;;1.48;;
22150;SDS011;11241;47.078;15.462;2022-08-21T03:56:38;3.33;;;1.58;;
22150;SDS011;11241;47.078;15.462;2022-08-21T03:58:56;3.70;;;1.98;;
22150;SDS011;11241;47.078;15.462;2022-08-21T04:01:14;2.00;;;1.67;;
22150;SDS011;11241;47.078;15.462;2022-08-21T04:03:33;1.77;;;1.60;;
22150;SDS011;11241;47.078;15.462;2022-08-21T04:05:51;1.73;;;1.60;;
22150;SDS011;11241;47.078;15.462;2022-08-21T04:08:09;1.60;;;1.40;;
22150;SDS011;11241;47.078;15.462;2022-08-21T04:10:28;1.83;;;1.67;;
22150;SDS011;11241;47.078;15.462;2022-08-21T04:12:47;2.00;;;1.63;;
22150;SDS011;11241;47.078;15.462;2022-08-21T04:15:05;2.88;;;1.80;;
22150;SDS011;11241;47.078;15.462;2022-08-21T04:17:23;2.30;;;1.75;;
22150;SDS011;11241;47.078;15.462;2022-08-21T04:19:40;3.90;;;2.13;;
22150;SDS011;11241;47.078;15.462;2022-08-21T04:21:58;3.05;;;1.60;;
22150;SDS011;11241;47.078;15.462;2022-08-21T04:24:16;3.90;;;2.10;;
22150;SDS011;11241;47.078;15.462;2022-08-21T04:26:34;3.35;;;1.70;;
22150;SDS011;11241;47.078;15.462;2022-08-21T04:28:52;2.47;;;1.60;;
22150;SDS011;11241;47.078;15.462;2022-08-21T04:31:12;4.03;;;2.00;;
22150;SDS011;11241;47.078;15.462;2022-08-21T04:33:30;1.90;;;1.67;;
22150;SDS011;11241;47.078;15.462;2022-08-21T04:35:48;2.33;;;1.60;;
22150;SDS011;11241;47.078;15.462;2022-08-21T04:38:07;2.75;;;1.70;;
22150;SDS011;11241;47.078;15.462;2022-08-21T04:40:26;2.63;;;1.95;;
22150;SDS011;11241;47.078;15.462;2022-08-21T04:42:48;5.15;;;2.13;;
22150;SDS011;11241;47.078;15.462;2022-08-21T04:47:24;2.05;;;1.85;;
22150;SDS011;11241;47.078;15.462;2022-08-21T04:50:02;4.82;;;2.05;;
22150;SDS011;11241;47.078;15.462;2022-08-21T04:52:21;2.72;;;2.03;;
22150;SDS011;11241;47.078;15.462;2022-08-21T04:54:39;2.08;;;1.80;;
22150;SDS011;11241;47.078;15.462;2022-08-21T04:57:01;4.60;;;2.00;;
22150;SDS011;11241;47.078;15.462;2022-08-21T04:59:32;3.65;;;2.30;;
22150;SDS011;11241;47.078;15.462;2022-08-21T05:01:53;2.67;;;1.92;;
22150;SDS011;11241;47.078;15.462;2022-08-21T05:04:14;2.45;;;1.88;;
22150;SDS011;11241;47.078;15.462;2022-08-21T05:06:35;3.13;;;2.15;;
22150;SDS011;11241;47.078;15.462;2022-08-21T05:08:54;2.78;;;2.00;;
22150;SDS011;11241;47.078;15.462;2022-08-21T05:11:17;3.83;;;1.90;;
22150;SDS011;11241;47.078;15.462;2022-08-21T05:13:36;3.60;;;2.00;;
22150;SDS011;11241;47.078;15.462;2022-08-21T05:15:54;3.17;;;1.80;;
22150;SDS011;11241;47.078;15.462;2022-08-21T05:18:12;5.47;;;1.83;;
22150;SDS011;11241;47.078;15.462;2022-08-21T05:20:30;1.90;;;1.70;;
22150;SDS011;11241;47.078;15.462;2022-08-21T05:22:48;2.70;;;1.85;;
22150;SDS011;11241;47.078;15.462;2022-08-21T05:25:06;2.35;;;1.83;;
22150;SDS011;11241;47.078;15.462;2022-08-21T05:27:26;2.20;;;1.77;;
22150;SDS011;11241;47.078;15.462;2022-08-21T05:29:48;2.28;;;1.75;;
22150;SDS011;11241;47.078;15.462;2022-08-21T05:32:10;4.13;;;1.88;;
22150;SDS011;11241;47.078;15.462;2022-08-21T05:34:28;2.17;;;1.77;;
22150;SDS011;11241;47.078;15.462;2022-08-21T05:36:46;2.03;;;1.83;;
22150;SDS011;11241;47.078;15.462;2022-08-21T05:39:03;4.60;;;1.80;;
22150;SDS011;11241;47.078;15.462;2022-08-21T05:41:21;2.03;;;1.73;;
22150;SDS011;11241;47.078;15.462;2022-08-21T05:43:39;1.95;;;1.75;;
22150;SDS011;11241;47.078;15.462;2022-08-21T05:45:57;3.05;;;1.90;;
22150;SDS011;11241;47.078;15.462;2022-08-21T05:48:18;2.22;;;1.90;;
22150;SDS011;11241;47.078;15.462;2022-08-21T05:50:36;2.10;;;1.90;;
22150;SDS011;11241;47.078;15.462;2022-08-21T05:52:55;2.25;;;2.00;;
22150;SDS011;11241;47.078;15.462;2022-08-21T05:55:22;2.95;;;2.03;;
22150;SDS011;11241;47.078;15.462;2022-08-21T05:57:40;2.47;;;1.63;;
22150;SDS011;11241;47.078;15.462;2022-08-21T06:00:00;1.75;;;1.60;;
22150;SDS011;11241;47.078;15.462;2022-08-21T06:02:18;2.83;;;1.80;;
22150;SDS011;11241;47.078;15.462;2022-08-21T06:04:40;2.13;;;1.75;;
22150;SDS011;11241;47.078;15.462;2022-08-21T06:06:58;2.97;;;1.80;;
22150;SDS011;11241;47.078;15.462;2022-08-21T06:09:16;2.80;;;2.00;;
22150;SDS011;11241;47.078;15.462;2022-08-21T06:11:33;3.38;;;1.92;;
22150;SDS011;11241;47.078;15.462;2022-08-21T06:13:51;3.13;;;2.10;;
22150;SDS011;11241;47.078;15.462;2022-08-21T06:16:14;3.33;;;2.30;;
22150;SDS011;11241;47.078;15.462;2022-08-21T06:18:32;2.15;;;1.95;;
22150;SDS011;11241;47.078;15.462;2022-08-21T06:20:50;2.55;;;1.90;;
22150;SDS011;11241;47.078;15.462;2022-08-21T06:23:08;2.28;;;1.92;;
22150;SDS011;11241;47.078;15.462;2022-08-21T06:25:25;2.85;;;1.70;;
22150;SDS011;11241;47.078;15.462;2022-08-21T06:27:43;2.72;;;1.60;;
22150;SDS011;11241;47.078;15.462;2022-08-21T06:30:01;1.40;;;1.30;;
22150;SDS011;11241;47.078;15.462;2022-08-21T06:32:19;2.85;;;1.58;;
22150;SDS011;11241;47.078;15.462;2022-08-21T06:34:38;1.65;;;1.40;;
22150;SDS011;11241;47.078;15.462;2022-08-21T06:36:56;4.13;;;1.70;;
22150;SDS011;11241;47.078;15.462;2022-08-21T06:39:14;1.40;;;1.27;;
22150;SDS011;11241;47.078;15.462;2022-08-21T06:41:46;3.10;;;1.37;;
22150;SDS011;11241;47.078;15.462;2022-08-21T06:44:04;2.35;;;1.55;;
22150;SDS011;11241;47.078;15.462;2022-08-21T06:46:26;1.52;;;1.40;;
22150;SDS011;11241;47.078;15.462;2022-08-21T06:48:44;1.90;;;1.50;;
22150;SDS011;11241;47.078;15.462;2022-08-21T06:51:02;3.55;;;1.63;;
22150;SDS011;11241;47.078;15.462;2022-08-21T06:53:20;1.90;;;1.40;;
22150;SDS011;11241;47.078;15.462;2022-08-21T06:55:39;1.40;;;1.30;;
22150;SDS011;11241;47.078;15.462;2022-08-21T06:57:56;1.45;;;1.35;;
22150;SDS011;11241;47.078;15.462;2022-08-21T07:00:14;1.45;;;1.23;;
22150;SDS011;11241;47.078;15.462;2022-08-21T07:02:32;1.65;;;1.42;;
22150;SDS011;11241;47.078;15.462;2022-08-21T07:04:50;1.88;;;1.50;;
22150;SDS011;11241;47.078;15.462;2022-08-21T07:07:08;2.55;;;1.50;;
22150;SDS011;11241;47.078;15.462;2022-08-21T07:09:29;1.60;;;1.30;;
22150;SDS011;11241;47.078;15.462;2022-08-21T07:11:49;1.75;;;1.45;;
22150;SDS011;11241;47.078;15.462;2022-08-21T07:14:07;1.42;;;1.30;;
22150;SDS011;11241;47.078;15.462;2022-08-21T07:16:39;1.50;;;1.40;;
22150;SDS011;11241;47.078;15.462;2022-08-21T07:18:58;1.45;;;1.10;;
22150;SDS011;11241;47.078;15.462;2022-08-21T07:21:17;1.42;;;1.33;;
22150;SDS011;11241;47.078;15.462;2022-08-21T07:23:42;1.50;;;1.40;;
22150;SDS011;11241;47.078;15.462;2022-08-21T07:26:00;1.83;;;1.40;;
22150;SDS011;11241;47.078;15.462;2022-08-21T07:28:20;1.80;;;1.40;;
22150;SDS011;11241;47.078;15.462;2022-08-21T07:30:38;1.25;;;1.15;;
22150;SDS011;11241;47.078;15.462;2022-08-21T07:32:56;2.03;;;1.40;;
22150;SDS011;11241;47.078;15.462;2022-08-21T07:35:15;1.27;;;1.17;;
22150;SDS011;11241;47.078;15.462;2022-08-21T07:37:33;1.40;;;1.10;;
22150;SDS011;11241;47.078;15.462;2022-08-21T07:39:51;1.45;;;1.30;;
22150;SDS011;11241;47.078;15.462;2022-08-21T07:42:09;1.67;;;1.20;;
22150;SDS011;11241;47.078;15.462;2022-08-21T07:44:27;1.20;;;1.10;;
22150;SDS011;11241;47.078;15.462;2022-08-21T07:46:45;1.85;;;1.40;;
22150;SDS011;11241;47.078;15.462;2022-08-21T07:49:03;1.33;;;1.23;;
22150;SDS011;11241;47.078;15.462;2022-08-21T07:51:22;1.80;;;1.38;;
22150;SDS011;11241;47.078;15.462;2022-08-21T07:53:41;2.25;;;1.50;;
22150;SDS011;11241;47.078;15.462;2022-08-21T07:55:59;1.50;;;1.40;;
22150;SDS011;11241;47.078;15.462;2022-08-21T07:58:17;1.40;;;1.30;;
22150;SDS011;11241;47.078;15.462;2022-08-21T08:00:34;2.88;;;1.30;;
22150;SDS011;11241;47.078;15.462;2022-08-21T08:02:53;2.13;;;1.10;;
22150;SDS011;11241;47.078;15.462;2022-08-21T08:05:11;3.55;;;1.42;;
22150;SDS011;11241;47.078;15.462;2022-08-21T08:07:30;2.75;;;1.33;;
22150;SDS011;11241;47.078;15.462;2022-08-21T08:09:47;3.42;;;1.30;;
22150;SDS011;11241;47.078;15.462;2022-08-21T08:12:05;1.33;;;1.23;;
22150;SDS011;11241;47.078;15.462;2022-08-21T08:14:23;1.20;;;1.00;;
22150;SDS011;11241;47.078;15.462;2022-08-21T08:16:47;1.42;;;1.00;;
22150;SDS011;11241;47.078;15.462;2022-08-21T08:19:05;1.45;;;1.17;;
22150;SDS011;11241;47.078;15.462;2022-08-21T08:21:23;3.63;;;1.25;;
22150;SDS011;11241;47.078;15.462;2022-08-21T08:23:40;1.27;;;1.00;;
22150;SDS011;11241;47.078;15.462;2022-08-21T08:26:01;1.20;;;1.10;;
22150;SDS011;11241;47.078;15.462;2022-08-21T08:28:22;2.67;;;1.00;;
22150;SDS011;11241;47.078;15.462;2022-08-21T08:30:41;1.40;;;1.30;;
22150;SDS011;11241;47.078;15.462;2022-08-21T08:32:59;1.08;;;0.98;;
22150;SDS011;11241;47.078;15.462;2022-08-21T08:35:17;1.23;;;1.13;;
22150;SDS011;11241;47.078;15.462;2022-08-21T08:39:58;1.17;;;1.08;;
22150;SDS011;11241;47.078;15.462;2022-08-21T08:44:50;0.95;;;0.95;;
22150;SDS011;11241;47.078;15.462;2022-08-21T08:47:14;1.02;;;1.00;;
22150;SDS011;11241;47.078;15.462;2022-08-21T08:49:39;1.00;;;0.93;;
22150;SDS011;11241;47.078;15.462;2022-08-21T08:52:33;1.80;;;1.02;;
22150;SDS011;11241;47.078;15.462;2022-08-21T08:54:44;1.13;;;0.88;;
22150;SDS011;11241;47.078;15.462;2022-08-21T08:57:03;1.55;;;0.93;;
22150;SDS011;11241;47.078;15.462;2022-08-21T08:59:23;1.08;;;0.98;;
22150;SDS011;11241;47.078;15.462;2022-08-21T09:01:46;0.80;;;0.80;;
22150;SDS011;11241;47.078;15.462;2022-08-21T09:04:04;1.60;;;0.90;;
22150;SDS011;11241;47.078;15.462;2022-08-21T09:13:33;1.55;;;1.00;;
22150;SDS011;11241;47.078;15.462;2022-08-21T09:16:05;1.10;;;1.00;;
22150;SDS011;11241;47.078;15.462;2022-08-21T09:23:34;1.30;;;1.10;;
22150;SDS011;11241;47.078;15.462;2022-08-21T09:28:12;0.93;;;0.85;;
22150;SDS011;11241;47.078;15.462;2022-08-21T09:30:32;2.67;;;0.88;;
22150;SDS011;11241;47.078;15.462;2022-08-21T09:32:50;3.30;;;0.93;;
22150;SDS011;11241;47.078;15.462;2022-08-21T09:35:13;1.10;;;1.00;;
22150;SDS011;11241;47.078;15.462;2022-08-21T09:37:33;1.10;;;1.00;;
22150;SDS011;11241;47.078;15.462;2022-08-21T09:39:51;1.83;;;0.95;;
22150;SDS011;11241;47.078;15.462;2022-08-21T09:42:10;1.77;;;1.10;;
22150;SDS011;11241;47.078;15.462;2022-08-21T09:44:28;1.08;;;0.80;;
22150;SDS011;11241;47.078;15.462;2022-08-21T09:46:50;1.20;;;1.10;;
22150;SDS011;11241;47.078;15.462;2022-08-21T09:49:11;1.08;;;1.00;;
22150;SDS011;11241;47.078;15.462;2022-08-21T09:51:49;1.08;;;0.98;;
22150;SDS011;11241;47.078;15.462;2022-08-21T09:54:11;1.00;;;0.90;;
22150;SDS011;11241;47.078;15.462;2022-08-21T09:56:33;1.85;;;1.23;;
22150;SDS011;11241;47.078;15.462;2022-08-21T09:59:29;1.73;;;1.10;;
22150;SDS011;11241;47.078;15.462;2022-08-21T10:01:53;1.30;;;1.20;;
22150;SDS011;11241;47.078;15.462;2022-08-21T10:04:11;1.90;;;1.20;;
22150;SDS011;11241;47.078;15.462;2022-08-21T10:06:30;1.30;;;1.20;;
22150;SDS011;11241;47.078;15.462;2022-08-21T10:08:48;1.30;;;1.20;;
22150;SDS011;11241;47.078;15.462;2022-08-21T10:11:10;2.08;;;1.38;;
22150;SDS011;11241;47.078;15.462;2022-08-21T10:16:28;1.48;;;1.33;;
22150;SDS011;11241;47.078;15.462;2022-08-21T10:23:51;1.38;;;1.27;;
22150;SDS011;11241;47.078;15.462;2022-08-21T10:28:51;4.55;;;1.40;;
22150;SDS011;11241;47.078;15.462;2022-08-21T10:46:27;1.70;;;1.40;;
22150;SDS011;11241;47.078;15.462;2022-08-21T10:48:55;1.92;;;1.30;;
22150;SDS011;11241;47.078;15.462;2022-08-21T10:53:47;1.52;;;1.10;;
22150;SDS011;11241;47.078;15.462;2022-08-21T10:56:19;1.55;;;1.00;;
22150;SDS011;11241;47.078;15.462;2022-08-21T11:03:39;1.70;;;0.98;;
22150;SDS011;11241;47.078;15.462;2022-08-21T11:06:04;1.40;;;1.10;;
22150;SDS011;11241;47.078;15.462;2022-08-21T11:08:26;2.72;;;1.10;;
22150;SDS011;11241;47.078;15.462;2022-08-21T11:10:46;1.60;;;1.08;;
22150;SDS011;11241;47.078;15.462;2022-08-21T11:13:17;1.23;;;1.00;;
22150;SDS011;11241;47.078;15.462;2022-08-21T11:16:07;2.17;;;1.00;;
22150;SDS011;11241;47.078;15.462;2022-08-21T11:18:34;1.58;;;1.10;;
22150;SDS011;11241;47.078;15.462;2022-08-21T11:21:14;1.52;;;1.08;;
22150;SDS011;11241;47.078;15.462;2022-08-21T11:26:15;2.92;;;1.00;;
22150;SDS011;11241;47.078;15.462;2022-08-21T11:28:38;1.67;;;1.15;;
22150;SDS011;11241;47.078;15.462;2022-08-21T11:31:01;2.67;;;0.98;;
22150;SDS011;11241;47.078;15.462;2022-08-21T11:38:08;2.17;;;0.85;;
22150;SDS011;11241;47.078;15.462;2022-08-21T11:45:25;1.30;;;0.90;;
22150;SDS011;11241;47.078;15.462;2022-08-21T11:52:48;1.02;;;0.80;;
22150;SDS011;11241;47.078;15.462;2022-08-21T11:55:31;1.25;;;0.90;;
22150;SDS011;11241;47.078;15.462;2022-08-21T12:00:13;0.60;;;0.60;;
22150;SDS011;11241;47.078;15.462;2022-08-21T12:02:35;0.70;;;0.70;;
22150;SDS011;11241;47.078;15.462;2022-08-21T12:04:59;0.60;;;0.60;;
22150;SDS011;11241;47.078;15.462;2022-08-21T12:07:29;1.25;;;0.70;;
22150;SDS011;11241;47.078;15.462;2022-08-21T12:09:52;2.60;;;0.77;;
22150;SDS011;11241;47.078;15.462;2022-08-21T12:12:12;0.70;;;0.70;;
22150;SDS011;11241;47.078;15.462;2022-08-21T12:17:03;0.90;;;0.70;;
22150;SDS011;11241;47.078;15.462;2022-08-21T12:21:50;0.75;;;0.68;;
22150;SDS011;11241;47.078;15.462;2022-08-21T12:26:36;1.92;;;0.70;;
22150;SDS011;11241;47.078;15.462;2022-08-21T12:29:12;0.55;;;0.50;;
22150;SDS011;11241;47.078;15.462;2022-08-21T12:31:31;0.50;;;0.50;;
22150;SDS011;11241;47.078;15.462;2022-08-21T12:33:50;1.55;;;0.80;;
22150;SDS011;11241;47.078;15.462;2022-08-21T12:36:14;1.02;;;0.68;;
22150;SDS011;11241;47.078;15.462;2022-08-21T12:38:44;0.52;;;0.52;;
22150;SDS011;11241;47.078;15.462;2022-08-21T12:41:05;1.90;;;0.80;;
22150;SDS011;11241;47.078;15.462;2022-08-21T12:43:34;1.17;;;0.60;;
22150;SDS011;11241;47.078;15.462;2022-08-21T12:45:53;1.55;;;0.40;;
22150;SDS011;11241;47.078;15.462;2022-08-21T12:48:17;2.20;;;0.60;;
22150;SDS011;11241;47.078;15.462;2022-08-21T12:50:42;0.65;;;0.60;;
22150;SDS011;11241;47.078;15.462;2022-08-21T12:53:06;0.60;;;0.60;;
22150;SDS011;11241;47.078;15.462;2022-08-21T12:55:37;3.30;;;0.50;;
22150;SDS011;11241;47.078;15.462;2022-08-21T12:57:58;1.60;;;0.40;;
22150;SDS011;11241;47.078;15.462;2022-08-21T13:00:20;0.88;;;0.60;;
22150;SDS011;11241;47.078;15.462;2022-08-21T13:02:39;0.40;;;0.40;;
22150;SDS011;11241;47.078;15.462;2022-08-21T13:05:01;0.35;;;0.35;;
22150;SDS011;11241;47.078;15.462;2022-08-21T13:07:22;0.52;;;0.50;;
22150;SDS011;11241;47.078;15.462;2022-08-21T13:09:44;3.65;;;0.70;;
22150;SDS011;11241;47.078;15.462;2022-08-21T13:12:06;1.23;;;0.50;;
22150;SDS011;11241;47.078;15.462;2022-08-21T13:14:29;2.13;;;0.60;;
22150;SDS011;11241;47.078;15.462;2022-08-21T13:16:52;0.60;;;0.50;;
22150;SDS011;11241;47.078;15.462;2022-08-21T13:21:30;0.57;;;0.57;;
22150;SDS011;11241;47.078;15.462;2022-08-21T13:23:48;0.63;;;0.47;;
22150;SDS011;11241;47.078;15.462;2022-08-21T13:26:13;2.25;;;0.70;;
22150;SDS011;11241;47.078;15.462;2022-08-21T13:28:35;0.40;;;0.40;;
22150;SDS011;11241;47.078;15.462;2022-08-21T13:30:54;0.70;;;0.50;;
22150;SDS011;11241;47.078;15.462;2022-08-21T13:33:13;3.50;;;0.45;;
22150;SDS011;11241;47.078;15.462;2022-08-21T13:38:24;2.33;;;0.30;;
22150;SDS011;11241;47.078;15.462;2022-08-21T13:40:47;0.40;;;0.40;;
22150;SDS011;11241;47.078;15.462;2022-08-21T13:45:25;0.77;;;0.60;;
22150;SDS011;11241;47.078;15.462;2022-08-21T13:47:44;0.70;;;0.40;;
22150;SDS011;11241;47.078;15.462;2022-08-21T13:50:03;0.43;;;0.43;;
22150;SDS011;11241;47.078;15.462;2022-08-21T13:52:24;0.40;;;0.40;;
22150;SDS011;11241;47.078;15.462;2022-08-21T13:54:43;0.40;;;0.40;;
22150;SDS011;11241;47.078;15.462;2022-08-21T13:57:01;0.70;;;0.60;;
22150;SDS011;11241;47.078;15.462;2022-08-21T13:59:26;2.20;;;0.60;;
22150;SDS011;11241;47.078;15.462;2022-08-21T14:04:26;0.50;;;0.50;;
22150;SDS011;11241;47.078;15.462;2022-08-21T14:06:44;1.67;;;0.60;;
22150;SDS011;11241;47.078;15.462;2022-08-21T14:09:13;1.05;;;0.52;;
22150;SDS011;11241;47.078;15.462;2022-08-21T14:11:37;3.50;;;0.40;;
22150;SDS011;11241;47.078;15.462;2022-08-21T14:14:00;0.57;;;0.50;;
22150;SDS011;11241;47.078;15.462;2022-08-21T14:16:41;1.38;;;0.63;;
22150;SDS011;11241;47.078;15.462;2022-08-21T14:21:39;0.55;;;0.50;;
22150;SDS011;11241;47.078;15.462;2022-08-21T14:26:21;0.50;;;0.50;;
22150;SDS011;11241;47.078;15.462;2022-08-21T14:28:40;0.65;;;0.50;;
22150;SDS011;11241;47.078;15.462;2022-08-21T14:31:10;0.47;;;0.47;;
22150;SDS011;11241;47.078;15.462;2022-08-21T14:33:30;0.85;;;0.50;;
22150;SDS011;11241;47.078;15.462;2022-08-21T14:35:48;2.30;;;0.60;;
22150;SDS011;11241;47.078;15.462;2022-08-21T14:38:15;1.38;;;0.60;;
22150;SDS011;11241;47.078;15.462;2022-08-21T14:40:34;1.25;;;0.57;;
22150;SDS011;11241;47.078;15.462;2022-08-21T14:42:52;0.70;;;0.68;;
22150;SDS011;11241;47.078;15.462;2022-08-21T14:45:15;0.60;;;0.60;;
22150;SDS011;11241;47.078;15.462;2022-08-21T14:47:36;2.63;;;0.57;;
22150;SDS011;11241;47.078;15.462;2022-08-21T14:49:54;2.63;;;0.50;;
22150;SDS011;11241;47.078;15.462;2022-08-21T14:52:12;1.38;;;0.65;;
22150;SDS011;11241;47.078;15.462;2022-08-21T14:54:30;0.77;;;0.70;;
22150;SDS011;11241;47.078;15.462;2022-08-21T14:56:48;0.90;;;0.90;;
22150;SDS011;11241;47.078;15.462;2022-08-21T14:59:09;1.55;;;0.90;;
22150;SDS011;11241;47.078;15.462;2022-08-21T15:01:27;1.33;;;0.80;;
22150;SDS011;11241;47.078;15.462;2022-08-21T15:03:46;1.10;;;1.00;;
22150;SDS011;11241;47.078;15.462;2022-08-21T15:06:05;1.13;;;1.02;;
22150;SDS011;11241;47.078;15.462;2022-08-21T15:08:23;1.67;;;0.95;;
22150;SDS011;11241;47.078;15.462;2022-08-21T15:10:41;1.10;;;1.00;;
22150;SDS011;11241;47.078;15.462;2022-08-21T15:13:20;1.60;;;1.15;;
22150;SDS011;11241;47.078;15.462;2022-08-21T15:15:40;1.77;;;1.20;;
22150;SDS011;11241;47.078;15.462;2022-08-21T15:17:58;2.13;;;1.23;;
22150;SDS011;11241;47.078;15.462;2022-08-21T15:20:16;1.40;;;1.30;;
22150;SDS011;11241;47.078;15.462;2022-08-21T15:22:34;2.00;;;1.52;;
22150;SDS011;11241;47.078;15.462;2022-08-21T15:24:52;1.65;;;1.35;;
22150;SDS011;11241;47.078;15.462;2022-08-21T15:27:10;1.33;;;1.23;;
22150;SDS011;11241;47.078;15.462;2022-08-21T15:29:32;2.47;;;1.33;;
22150;SDS011;11241;47.078;15.462;2022-08-21T15:31:54;1.50;;;1.40;;